Time;durP1;ratioP1;P1;durP2;ratioP2;P2;SDS_P1;SDS_P2;PMS_P1;PMS_P2;Temp;Humidity;BMP_temperature;BMP_pressure;BME280_temperature;BME280_humidity;BME280_pressure;Samples;Min_cycle;Max_cycle;Signal;HPM_P1;HPM_P2
2022/12/25 00:00:30;;;;;;;;;2.33;2.33;;;;;14.42;53.73;100106.81;5055960;28;45435;-88
2022/12/25 00:02:56;;;;;;;;;6.00;5.67;;;;;14.37;54.06;100109.41;5056389;28;45456;-89
2022/12/25 00:05:22;;;;;;;;;1.67;1.67;;;;;14.43;52.14;100104.19;5056019;28;46175;-79
2022/12/25 00:07:48;;;;;;;;;1.00;1.00;;;;;14.56;52.48;100099.94;5055327;28;45253;-69
2022/12/25 00:10:14;;;;;;;;;1.00;1.00;;;;;14.71;51.82;100093.91;5053169;28;45305;-78
2022/12/25 00:12:40;;;;;;;;;1.67;1.00;;;;;14.80;51.32;100096.59;5055332;28;47184;-77
2022/12/25 00:15:06;;;;;;;;;1.33;1.00;;;;;14.86;50.95;100099.25;5055471;28;45413;-88
2022/12/25 00:17:31;;;;;;;;;1.67;1.00;;;;;14.91;50.99;100094.00;5052488;28;45370;-69
2022/12/25 00:19:57;;;;;;;;;1.00;1.00;;;;;14.94;50.71;100104.56;5055791;28;45443;-79
2022/12/25 00:22:22;;;;;;;;;1.00;1.00;;;;;14.96;50.38;100094.94;5056061;28;45364;-72
2022/12/25 00:24:48;;;;;;;;;0.00;0.00;;;;;15.03;50.01;100096.69;5055535;28;46001;-84
2022/12/25 00:27:15;;;;;;;;;0.00;0.00;;;;;15.14;50.06;100099.38;5056072;28;45517;-85
2022/12/25 00:29:40;;;;;;;;;1.00;1.00;;;;;15.20;49.82;100109.03;5056062;28;45797;-87
2022/12/25 00:32:06;;;;;;;;;1.00;0.67;;;;;15.09;49.59;100091.47;5061683;28;45314;-86
2022/12/25 00:34:32;;;;;;;;;1.00;1.00;;;;;15.22;49.22;100092.41;5070248;28;45490;-85
2022/12/25 00:36:57;;;;;;;;;1.00;1.00;;;;;15.31;49.61;100118.72;5058887;28;45487;-85
2022/12/25 00:39:23;;;;;;;;;1.33;1.33;;;;;15.30;49.77;100113.50;5058316;28;45759;-76
2022/12/25 00:44:32;;;;;;;;;2.00;1.00;;;;;15.27;49.39;100119.59;5058449;28;45788;-86
2022/12/25 00:46:58;;;;;;;;;1.00;1.00;;;;;15.26;49.78;100107.31;5058651;28;45373;-71
2022/12/25 00:49:23;;;;;;;;;1.00;1.00;;;;;15.29;49.77;100120.47;5048985;28;45438;-85
2022/12/25 00:51:50;;;;;;;;;1.00;1.00;;;;;15.16;49.84;100100.28;5058223;28;45633;-71
2022/12/25 00:54:16;;;;;;;;;1.67;1.67;;;;;15.23;50.07;100115.19;5056466;28;45457;-87
2022/12/25 00:56:42;;;;;;;;;1.00;1.00;;;;;15.19;49.98;100118.69;5059073;28;45466;-87
2022/12/25 00:59:08;;;;;;;;;1.33;1.00;;;;;15.21;49.90;100127.47;5059268;28;45456;-87
2022/12/25 01:01:33;;;;;;;;;0.00;0.00;;;;;15.23;49.66;100130.97;5058830;28;45556;-84
2022/12/25 01:03:59;;;;;;;;;1.00;1.00;;;;;15.26;49.59;100130.09;5058377;28;45560;-84
2022/12/25 01:06:25;;;;;;;;;0.00;0.00;;;;;15.24;49.46;100118.69;5057800;28;45534;-86
2022/12/25 01:11:35;;;;;;;;;1.00;1.00;;;;;15.21;49.38;100111.69;5059368;28;45409;-86
2022/12/25 01:14:01;;;;;;;;;1.00;1.00;;;;;15.38;48.98;100122.28;5052716;28;45912;-86
2022/12/25 01:16:27;;;;;;;;;2.00;1.00;;;;;15.41;48.89;100110.88;5060275;28;45908;-86
2022/12/25 01:18:52;;;;;;;;;2.00;1.00;;;;;15.47;48.47;100117.03;5058062;28;45427;-87
2022/12/25 01:21:20;;;;;;;;;1.00;1.00;;;;;15.53;48.82;100126.69;5059649;28;46015;-68
2022/12/25 01:23:46;;;;;;;;;1.00;1.00;;;;;15.44;48.20;100093.34;5060219;28;46213;-86
2022/12/25 01:26:13;;;;;;;;;2.00;1.00;;;;;15.64;48.22;100114.47;5058577;28;46491;-86
2022/12/25 01:28:40;;;;;;;;;1.00;1.00;;;;;15.71;48.18;100112.72;5059090;28;45396;-83
2022/12/25 01:31:09;;;;;;;;;1.00;1.00;;;;;15.79;47.80;100110.13;5059617;28;45418;-87
2022/12/25 01:33:35;;;;;;;;;1.00;1.00;;;;;15.84;48.10;100111.03;5058667;28;47979;-86
2022/12/25 01:36:00;;;;;;;;;2.00;1.00;;;;;15.84;47.86;100135.59;5058684;28;45335;-87
2022/12/25 01:38:26;;;;;;;;;1.00;0.33;;;;;15.91;47.86;100125.94;5058959;28;45324;-85
2022/12/25 01:40:51;;;;;;;;;1.00;1.00;;;;;15.94;47.69;100114.56;5057715;28;45411;-86
2022/12/25 01:43:29;;;;;;;;;1.33;1.00;;;;;15.88;47.60;100099.63;5059014;28;46211;-86
2022/12/25 01:45:55;;;;;;;;;1.67;1.00;;;;;16.04;47.21;100122.44;5058012;28;45605;-87
2022/12/25 01:48:37;;;;;;;;;2.00;2.00;;;;;16.04;47.27;100126.84;5058757;28;45455;-85
2022/12/25 01:51:19;;;;;;;;;1.33;1.33;;;;;16.06;47.32;100128.59;5059015;28;45611;-77
2022/12/25 01:53:45;;;;;;;;;2.00;1.00;;;;;16.05;47.48;100120.69;5058621;28;45474;-86
2022/12/25 01:56:11;;;;;;;;;1.00;1.00;;;;;15.96;47.65;100097.00;5058563;28;45325;-87
2022/12/25 01:58:36;;;;;;;;;1.33;1.00;;;;;15.95;47.83;100114.53;5058395;28;45331;-87
2022/12/25 02:01:02;;;;;;;;;2.00;1.00;;;;;15.98;47.81;100111.03;5059468;28;45351;-80
2022/12/25 02:03:27;;;;;;;;;2.00;1.33;;;;;15.90;47.96;100104.00;5058577;28;45322;-86
2022/12/25 02:05:53;;;;;;;;;2.00;2.00;;;;;15.94;47.89;100104.88;5058940;28;45414;-84
2022/12/25 02:08:21;;;;;;;;;2.00;1.00;;;;;15.90;47.97;100105.75;5058987;28;45350;-87
2022/12/25 02:10:46;;;;;;;;;2.67;2.67;;;;;15.87;48.02;100116.28;5059080;28;45394;-82
2022/12/25 02:13:15;;;;;;;;;2.00;2.00;;;;;15.83;48.18;100111.88;5057572;28;46067;-86
2022/12/25 02:15:58;;;;;;;;;1.00;1.00;;;;;15.79;48.05;100120.66;5058618;28;45220;-86
2022/12/25 02:18:36;;;;;;;;;1.67;1.67;;;;;15.80;48.04;100123.31;5043514;28;45428;-86
2022/12/25 02:21:01;;;;;;;;;2.00;1.67;;;;;15.81;48.12;100114.50;5058377;28;45404;-86
2022/12/25 02:23:48;;;;;;;;;2.33;1.00;;;;;15.80;48.17;100131.22;5057811;28;46097;-86
2022/12/25 02:26:35;;;;;;;;;1.00;1.00;;;;;15.77;48.26;100128.56;5058428;28;45567;-85
2022/12/25 02:29:16;;;;;;;;;1.00;1.00;;;;;15.73;48.12;100124.16;5059552;28;45464;-86
2022/12/25 02:32:19;;;;;;;;;1.00;1.00;;;;;15.75;48.17;100129.44;5057637;28;45309;-85
2022/12/25 02:35:06;;;;;;;;;2.00;1.67;;;;;15.73;48.52;100133.81;5028102;28;46044;-85
2022/12/25 02:37:41;;;;;;;;;1.33;1.33;;;;;15.72;48.40;100127.66;5057243;28;45395;-84
2022/12/25 02:40:25;;;;;;;;;2.00;1.67;;;;;15.74;48.18;100135.56;5037025;28;45371;-86
2022/12/25 03:08:10;;;;;;;;;1.00;1.00;;;;;15.73;48.31;100115.38;5057556;28;45381;-85
2022/12/25 03:13:35;;;;;;;;;2.00;1.67;;;;;15.69;48.31;100125.88;5057686;28;45478;-85
2022/12/25 03:18:44;;;;;;;;;2.00;2.00;;;;;15.58;48.57;100114.44;5056737;28;45753;-86
2022/12/25 03:26:56;;;;;;;;;1.00;1.00;;;;;15.56;48.64;100124.09;5056525;28;45490;-87
2022/12/25 03:32:18;;;;;;;;;2.00;2.00;;;;;15.51;48.91;100131.97;5056788;28;45387;-86
2022/12/25 04:36:52;;;;;;;;;2.33;2.00;;;;;15.16;49.50;100080.94;5056168;28;45832;-84
2022/12/25 04:39:18;;;;;;;;;1.00;1.00;;;;;15.23;49.57;100088.00;5055638;28;45351;-86
2022/12/25 04:41:43;;;;;;;;;1.67;1.67;;;;;15.26;49.77;100109.97;5056300;28;45329;-85
2022/12/25 04:44:09;;;;;;;;;2.00;1.00;;;;;15.23;50.07;100098.53;5056329;28;45471;-86
2022/12/25 04:46:34;;;;;;;;;2.00;1.00;;;;;15.18;50.02;100095.00;5056096;28;46113;-85
2022/12/25 04:49:00;;;;;;;;;2.00;1.00;;;;;15.14;50.02;100083.59;5055666;28;45608;-84
2022/12/25 04:51:26;;;;;;;;;1.00;1.00;;;;;15.10;50.25;100084.47;5056542;28;45462;-86
2022/12/25 04:53:52;;;;;;;;;3.00;2.00;;;;;15.10;50.49;100080.06;5056337;28;45228;-86
2022/12/25 04:56:19;;;;;;;;;2.00;1.33;;;;;15.13;50.49;100070.44;5055729;28;45389;-86
2022/12/25 04:58:45;;;;;;;;;1.00;1.00;;;;;14.91;50.42;100023.88;5055480;28;45529;-87
2022/12/25 05:01:12;;;;;;;;;2.00;2.00;;;;;15.18;49.98;100066.97;5055903;28;45458;-87
2022/12/25 05:03:38;;;;;;;;;1.33;1.00;;;;;15.18;50.08;100074.84;5056241;28;45282;-87
2022/12/25 05:06:06;;;;;;;;;1.00;1.00;;;;;15.10;50.16;100073.94;5055657;28;46222;-82
2022/12/25 05:08:33;;;;;;;;;1.67;1.67;;;;;15.11;50.11;100075.69;5055190;28;45496;-84
2022/12/25 05:10:59;;;;;;;;;2.00;1.00;;;;;15.10;50.15;100080.06;5055528;28;45512;-84
2022/12/25 05:13:24;;;;;;;;;1.00;1.00;;;;;15.17;49.76;100078.34;5055941;28;45422;-86
2022/12/25 05:15:50;;;;;;;;;2.33;2.00;;;;;15.17;50.03;100082.72;5055444;28;46117;-85
2022/12/25 05:18:16;;;;;;;;;0.33;0.00;;;;;15.17;49.78;100082.72;5055268;28;45324;-87
2022/12/25 05:20:41;;;;;;;;;2.00;1.00;;;;;15.17;49.97;100091.50;5056828;28;45357;-82
2022/12/25 05:23:10;;;;;;;;;2.33;2.00;;;;;15.16;49.64;100081.84;5062751;28;45557;-86
2022/12/25 05:25:39;;;;;;;;;1.00;1.00;;;;;15.17;49.75;100075.69;5061127;28;46119;-86
2022/12/25 05:28:04;;;;;;;;;2.33;2.00;;;;;15.21;49.79;100079.22;5061633;28;45371;-79
2022/12/25 05:30:30;;;;;;;;;2.33;2.00;;;;;15.22;49.60;100070.44;5061563;28;45454;-86
2022/12/25 05:32:55;;;;;;;;;2.00;2.00;;;;;15.17;49.57;100067.81;5061004;28;45230;-87
2022/12/25 05:35:21;;;;;;;;;2.33;2.00;;;;;15.18;49.98;100082.75;5058858;28;46210;-87
2022/12/25 05:37:46;;;;;;;;;1.33;1.33;;;;;15.08;49.59;100045.00;5058309;28;45563;-85
2022/12/25 05:40:12;;;;;;;;;2.00;1.67;;;;;15.21;49.79;100064.31;5060044;28;45453;-87
2022/12/25 05:42:37;;;;;;;;;2.67;2.33;;;;;15.27;49.74;100071.34;5058845;28;45432;-87
2022/12/25 05:45:03;;;;;;;;;2.00;1.67;;;;;15.28;49.70;100074.00;5058756;28;45794;-80
2022/12/25 05:47:29;;;;;;;;;1.33;1.33;;;;;15.34;49.50;100057.34;5057755;28;45782;-87
2022/12/25 05:49:54;;;;;;;;;2.00;1.33;;;;;15.32;49.76;100061.75;5058625;28;45374;-80
2022/12/25 05:52:20;;;;;;;;;1.00;1.00;;;;;15.30;49.73;100060.84;5058942;28;45280;-86
2022/12/25 05:54:45;;;;;;;;;2.00;2.00;;;;;15.38;49.65;100050.31;5058555;28;45428;-86
2022/12/25 05:57:11;;;;;;;;;2.67;1.67;;;;;15.35;49.59;100051.19;5058635;28;45407;-86
2022/12/25 05:59:36;;;;;;;;;2.00;1.33;;;;;15.28;49.90;100031.91;5059174;28;45297;-79
2022/12/25 06:02:02;;;;;;;;;2.00;1.00;;;;;15.37;49.79;100038.06;5048833;28;45439;-70
2022/12/25 06:04:27;;;;;;;;;2.67;1.67;;;;;15.42;49.66;100026.66;5058756;28;45384;-87
2022/12/25 06:06:53;;;;;;;;;3.00;3.00;;;;;15.37;49.68;100012.59;5058992;28;45476;-87
2022/12/25 06:09:18;;;;;;;;;2.00;2.00;;;;;15.41;49.73;100034.56;5058802;28;45314;-77
2022/12/25 06:11:44;;;;;;;;;1.33;1.00;;;;;15.47;49.75;100030.16;5058851;28;45371;-86
2022/12/25 06:14:12;;;;;;;;;2.00;2.00;;;;;15.48;49.76;100033.69;5057933;28;45377;-86
2022/12/25 06:16:37;;;;;;;;;1.00;1.00;;;;;15.32;50.19;100017.88;5058484;28;45560;-84
2022/12/25 06:19:03;;;;;;;;;0.67;0.00;;;;;15.48;49.86;100050.38;5058413;28;45332;-87
2022/12/25 06:21:29;;;;;;;;;2.00;2.00;;;;;15.45;50.05;100036.31;5040820;28;45488;-86
2022/12/25 06:23:54;;;;;;;;;2.00;2.00;;;;;15.46;50.23;100035.44;5059848;28;46245;-86
2022/12/25 06:26:20;;;;;;;;;2.00;2.00;;;;;15.55;50.00;100040.72;5060535;28;45193;-85
2022/12/25 06:28:45;;;;;;;;;2.00;1.67;;;;;15.45;49.71;100000.31;5058786;28;45473;-81
2022/12/25 06:31:14;;;;;;;;;1.33;1.33;;;;;15.49;49.78;100009.13;5058577;28;45342;-73
2022/12/25 06:33:40;;;;;;;;;2.00;2.00;;;;;15.60;49.85;100017.03;5057779;28;46272;-79
2022/12/25 06:36:12;;;;;;;;;3.00;2.33;;;;;15.62;49.79;100021.44;5057995;28;45477;-72
2022/12/25 06:38:38;;;;;;;;;2.67;2.67;;;;;15.70;49.62;100022.31;5058257;28;45469;-83
2022/12/25 06:41:09;;;;;;;;;1.00;1.00;;;;;15.57;49.78;99998.59;5058637;28;45390;-80
2022/12/25 06:43:35;;;;;;;;;1.00;1.00;;;;;15.58;49.65;100011.78;5058217;28;45383;-76
2022/12/25 06:46:03;;;;;;;;;2.67;2.00;;;;;15.75;49.41;100019.69;5058350;28;45506;-85
2022/12/25 06:48:28;;;;;;;;;2.00;2.00;;;;;15.77;49.69;100023.22;5057949;28;45378;-87
2022/12/25 06:50:54;;;;;;;;;2.00;2.00;;;;;15.73;49.87;100020.59;5057578;28;45550;-86
2022/12/25 06:53:19;;;;;;;;;2.00;2.00;;;;;15.74;49.33;100011.78;5057987;28;45830;-87
2022/12/25 06:55:45;;;;;;;;;3.33;3.00;;;;;15.76;49.64;100026.75;5040172;28;45311;-86
2022/12/25 06:58:10;;;;;;;;;2.00;2.00;;;;;15.69;49.92;100035.47;5057881;28;45460;-84
2022/12/25 07:00:36;;;;;;;;;2.33;2.33;;;;;15.59;49.81;100038.97;5058510;28;45516;-87
2022/12/25 07:03:01;;;;;;;;;2.00;2.00;;;;;15.80;49.49;100051.31;5057334;28;46005;-86
2022/12/25 07:05:27;;;;;;;;;2.67;2.67;;;;;15.70;49.77;100064.44;5058358;28;45382;-81
2022/12/25 07:07:52;;;;;;;;;3.00;3.00;;;;;15.65;49.70;100066.16;5058907;28;45501;-86
2022/12/25 07:10:18;;;;;;;;;3.33;3.00;;;;;15.44;50.08;100055.63;5058157;28;45298;-87
2022/12/25 07:12:43;;;;;;;;;3.00;2.00;;;;;15.47;50.07;100050.34;5058130;28;45650;-79
2022/12/25 07:15:09;;;;;;;;;2.00;2.00;;;;;15.51;50.46;100054.75;5057581;28;45370;-86
2022/12/25 07:17:34;;;;;;;;;2.00;2.00;;;;;15.48;50.18;100068.78;5058827;28;45425;-81
2022/12/25 07:20:00;;;;;;;;;2.67;2.67;;;;;15.38;50.50;100067.00;5057733;28;45569;-86
2022/12/25 07:22:27;;;;;;;;;2.00;2.00;;;;;15.45;50.26;100070.53;5057699;28;46302;-87
2022/12/25 07:24:53;;;;;;;;;2.00;2.00;;;;;15.34;50.23;100062.63;5057059;28;45305;-74
2022/12/25 07:27:19;;;;;;;;;2.33;2.00;;;;;15.48;50.29;100088.97;5058099;28;45409;-87
2022/12/25 07:29:44;;;;;;;;;2.33;2.33;;;;;15.35;50.21;100076.66;5057433;28;45477;-79
2022/12/25 07:32:10;;;;;;;;;3.00;2.67;;;;;15.51;50.05;100087.22;5044620;28;45569;-87
2022/12/25 07:34:35;;;;;;;;;3.33;2.00;;;;;15.53;50.16;100076.69;5053601;28;45615;-88
2022/12/25 07:37:01;;;;;;;;;1.67;1.67;;;;;15.51;49.90;100083.69;5056602;28;45301;-86
2022/12/25 07:39:27;;;;;;;;;4.67;2.67;;;;;15.49;50.12;100081.06;5057117;28;45472;-86
2022/12/25 07:41:52;;;;;;;;;3.00;2.00;;;;;15.49;50.03;100085.44;5057014;28;46122;-87
2022/12/25 07:44:18;;;;;;;;;3.00;3.00;;;;;15.48;50.18;100089.84;5055831;28;45447;-87
2022/12/25 07:46:44;;;;;;;;;2.33;2.00;;;;;15.52;49.81;100093.38;5056982;28;45506;-86
2022/12/25 07:49:10;;;;;;;;;3.00;3.00;;;;;15.52;50.02;100096.00;5058321;28;45367;-86
2022/12/25 07:51:35;;;;;;;;;2.00;2.00;;;;;15.52;50.10;100098.63;5056384;28;45932;-85
2022/12/25 07:54:01;;;;;;;;;3.00;3.00;;;;;15.50;50.03;100116.19;5056780;28;45561;-84
2022/12/25 07:56:27;;;;;;;;;4.33;4.00;;;;;15.53;50.03;100103.00;5056382;28;45454;-86
2022/12/25 07:58:52;;;;;;;;;2.00;2.00;;;;;15.49;49.40;100096.84;5057376;28;45240;-85
2022/12/25 08:01:21;;;;;;;;;2.67;2.00;;;;;15.58;49.51;100113.53;5056739;28;45474;-82
2022/12/25 08:03:54;;;;;;;;;2.00;2.00;;;;;14.84;49.17;99977.41;5057870;28;45454;-86
2022/12/25 08:06:22;;;;;;;;;3.00;3.00;;;;;15.75;49.01;100121.53;5057021;28;45401;-87
2022/12/25 08:08:48;;;;;;;;;3.00;3.00;;;;;15.87;48.34;100114.50;5056833;28;45448;-87
2022/12/25 08:11:14;;;;;;;;;4.00;4.00;;;;;15.87;48.17;100098.72;5056352;28;46147;-86
2022/12/25 08:13:40;;;;;;;;;2.33;2.33;;;;;16.02;48.34;100104.91;5056061;28;45442;-86
2022/12/25 08:16:08;;;;;;;;;2.00;2.00;;;;;16.17;48.30;100111.91;5057971;28;45475;-85
2022/12/25 08:18:35;;;;;;;;;2.00;1.00;;;;;16.24;48.08;100129.50;5056554;28;45490;-77
2022/12/25 08:21:03;;;;;;;;;3.67;2.00;;;;;16.31;47.98;100115.41;5041049;28;46195;-87
2022/12/25 08:23:29;;;;;;;;;3.00;2.67;;;;;16.22;47.45;100094.34;5055963;28;45401;-70
2022/12/25 08:26:01;;;;;;;;;2.00;2.00;;;;;16.54;47.03;100130.38;5056274;28;45569;-87
2022/12/25 08:28:27;;;;;;;;;2.00;2.00;;;;;16.66;46.15;100128.56;5058068;28;45489;-88
2022/12/25 08:30:53;;;;;;;;;2.33;1.33;;;;;16.78;45.99;100132.94;5056044;28;46124;-88
2022/12/25 08:33:18;;;;;;;;;2.33;2.00;;;;;16.92;45.84;100134.72;5056451;28;45497;-86
2022/12/25 08:35:44;;;;;;;;;2.67;2.33;;;;;17.03;45.86;100148.75;5056516;28;45398;-87
2022/12/25 08:38:09;;;;;;;;;3.00;2.00;;;;;17.18;45.87;100138.16;5057560;28;45539;-85
2022/12/25 08:40:35;;;;;;;;;3.67;3.00;;;;;17.09;45.35;100103.88;5038126;28;46547;-87
2022/12/25 08:43:00;;;;;;;;;2.33;2.33;;;;;17.46;44.93;100145.97;5056441;28;45614;-80
2022/12/25 08:45:26;;;;;;;;;2.00;2.00;;;;;17.58;44.69;100147.66;5038015;28;45463;-91
2022/12/25 08:47:55;;;;;;;;;3.00;3.00;;;;;17.72;44.27;100142.31;5056754;28;45265;-86
2022/12/25 08:50:22;;;;;;;;;3.00;2.33;;;;;17.84;44.25;100148.41;5055919;28;45451;-84
2022/12/25 08:52:47;;;;;;;;;2.00;2.00;;;;;17.95;44.21;100143.06;5056143;28;45541;-89
2022/12/25 08:55:13;;;;;;;;;1.67;1.67;;;;;18.03;44.17;100151.84;5056056;28;45470;-84
2022/12/25 08:57:38;;;;;;;;;2.00;2.00;;;;;18.12;44.11;100139.44;5060062;28;45562;-77
2022/12/25 09:00:05;;;;;;;;;3.00;1.67;;;;;18.18;43.51;100152.59;5059425;28;45543;-74
2022/12/25 09:02:30;;;;;;;;;1.00;1.00;;;;;18.27;43.08;100142.84;5058832;28;45347;-71
2022/12/25 09:04:56;;;;;;;;;2.00;2.00;;;;;18.35;43.35;100140.13;5059538;28;45482;-87
2022/12/25 09:07:22;;;;;;;;;2.00;2.00;;;;;18.46;43.37;100153.25;5059728;28;45346;-81
2022/12/25 09:09:47;;;;;;;;;2.67;2.00;;;;;18.53;42.99;100148.81;5059598;28;45446;-82
2022/12/25 09:12:13;;;;;;;;;1.67;0.67;;;;;18.56;43.11;100157.59;5059932;28;45213;-81
2022/12/25 09:14:38;;;;;;;;;1.33;1.33;;;;;18.62;42.75;100148.69;5059788;28;45542;-81
2022/12/25 09:17:04;;;;;;;;;1.67;1.67;;;;;18.54;42.68;100147.91;5058890;28;45379;-74
2022/12/25 09:19:30;;;;;;;;;2.00;2.00;;;;;18.69;42.74;100179.50;5054376;28;45356;-79
2022/12/25 09:21:55;;;;;;;;;2.00;1.33;;;;;18.72;42.33;100160.97;5048977;28;45351;-75
2022/12/25 09:24:21;;;;;;;;;2.00;1.00;;;;;18.61;41.94;100142.53;5059704;28;45318;-70
2022/12/25 09:26:47;;;;;;;;;2.00;2.00;;;;;19.02;41.57;100169.50;5058761;28;45379;-74
2022/12/25 09:29:15;;;;;;;;;3.00;3.00;;;;;19.42;41.22;100180.53;5059437;28;46155;-72
2022/12/25 09:31:41;;;;;;;;;2.00;2.00;;;;;19.89;40.26;100172.88;5058692;28;45581;-77
2022/12/25 09:34:08;;;;;;;;;3.00;2.00;;;;;20.25;39.67;100194.44;5059004;28;45381;-82
2022/12/25 09:36:34;;;;;;;;;2.00;2.00;;;;;20.38;38.58;100197.78;5058768;28;45383;-79
2022/12/25 09:39:00;;;;;;;;;2.33;2.00;;;;;20.53;38.73;100197.56;5058706;28;45833;-74
2022/12/25 09:41:46;;;;;;;;;2.00;2.00;;;;;20.79;37.80;100218.38;5059261;28;45801;-72
2022/12/25 09:44:21;;;;;;;;;2.00;2.00;;;;;20.53;38.10;100164.81;5058850;28;45552;-74
2022/12/25 09:46:54;;;;;;;;;2.00;2.00;;;;;20.95;37.98;100224.28;5059004;28;45387;-77
2022/12/25 09:50:09;;;;;;;;;2.33;2.33;;;;;21.07;37.44;100220.53;5058791;28;45570;-75
2022/12/25 09:52:56;;;;;;;;;3.00;2.00;;;;;21.18;37.46;100228.28;5021472;28;45426;-73
2022/12/25 09:55:27;;;;;;;;;2.00;1.67;;;;;21.21;36.96;100214.97;5062149;28;45368;-79
2022/12/25 09:57:56;;;;;;;;;2.33;2.00;;;;;21.42;36.76;100248.19;5057974;28;45446;-74
2022/12/25 10:00:32;;;;;;;;;2.00;2.00;;;;;21.50;37.36;100264.91;5058585;28;45598;-86
2022/12/25 10:03:05;;;;;;;;;2.33;2.33;;;;;21.54;36.24;100258.63;5057327;28;45562;-83
2022/12/25 10:05:42;;;;;;;;;2.33;2.00;;;;;21.51;36.21;100261.34;5058646;28;45581;-82
2022/12/25 10:08:39;;;;;;;;;1.67;1.67;;;;;21.54;36.68;100244.47;5057775;28;45347;-82
2022/12/25 10:11:21;;;;;;;;;1.00;1.00;;;;;21.84;36.36;100266.88;5046768;28;46092;-77
2022/12/25 10:14:06;;;;;;;;;2.33;2.33;;;;;22.16;35.77;100254.66;5060276;28;45397;-85
2022/12/25 10:16:46;;;;;;;;;1.00;1.00;;;;;22.33;34.95;100254.34;5055865;28;45341;-74
2022/12/25 10:19:41;;;;;;;;;3.00;2.00;;;;;22.34;35.04;100238.34;5039214;28;45614;-84
2022/12/25 10:22:26;;;;;;;;;3.33;3.00;;;;;22.63;34.63;100234.09;5059727;28;45444;-82
2022/12/25 10:24:56;;;;;;;;;2.00;1.00;;;;;22.63;34.56;100242.06;5057790;28;45659;-78
2022/12/25 10:27:30;;;;;;;;;3.67;2.00;;;;;22.55;34.84;100258.22;5058164;28;45489;-75
2022/12/25 10:29:55;;;;;;;;;1.33;1.33;;;;;22.51;35.03;100224.63;5058179;28;45432;-85
2022/12/25 10:32:21;;;;;;;;;2.67;2.00;;;;;22.62;34.95;100233.22;5039747;28;45530;-82
2022/12/25 10:34:47;;;;;;;;;1.00;1.00;;;;;22.49;35.01;100212.25;5056514;28;45606;-85
2022/12/25 10:37:13;;;;;;;;;1.00;1.00;;;;;22.58;34.59;100254.59;5036504;28;45710;-83
2022/12/25 10:39:39;;;;;;;;;1.00;1.00;;;;;22.57;34.40;100247.56;5054123;28;45462;-86
2022/12/25 10:42:27;;;;;;;;;2.00;2.00;;;;;22.49;34.83;100245.06;5043267;28;45355;-73
2022/12/25 10:45:02;;;;;;;;;2.00;2.00;;;;;22.40;34.69;100232.88;5057864;28;45317;-76
2022/12/25 10:47:31;;;;;;;;;2.00;2.00;;;;;22.49;35.06;100249.53;5056573;28;45561;-78
2022/12/25 10:49:59;;;;;;;;;3.00;2.33;;;;;22.28;34.75;100235.78;5057852;28;45344;-72
2022/12/25 10:52:27;;;;;;;;;3.00;1.33;;;;;22.29;34.50;100237.56;5057412;28;45519;-76
2022/12/25 10:54:53;;;;;;;;;2.00;2.00;;;;;22.18;34.73;100231.56;5057455;28;45260;-72
2022/12/25 10:57:21;;;;;;;;;2.00;2.00;;;;;22.01;34.90;100245.25;5056867;28;45532;-75
2022/12/25 10:59:49;;;;;;;;;2.00;2.00;;;;;21.82;35.59;100216.38;5056736;28;45561;-73
2022/12/25 11:02:29;;;;;;;;;2.00;1.33;;;;;22.01;35.38;100232.81;5056228;28;46640;-74
2022/12/25 11:05:02;;;;;;;;;2.33;2.00;;;;;21.77;35.04;100201.47;5038760;28;45481;-69
2022/12/25 11:07:29;;;;;;;;;2.00;2.00;;;;;21.84;35.13;100219.91;5039446;28;45278;-76
2022/12/25 11:10:14;;;;;;;;;2.33;2.00;;;;;21.99;35.23;100233.78;5055670;28;45453;-85
2022/12/25 11:12:44;;;;;;;;;2.00;2.00;;;;;21.97;35.27;100236.47;5055348;28;45560;-84
2022/12/25 11:15:30;;;;;;;;;2.00;2.00;;;;;21.98;35.06;100240.84;5055484;28;45408;-84
2022/12/25 11:17:56;;;;;;;;;2.67;2.00;;;;;21.96;35.34;100223.19;5054965;28;45615;-86
2022/12/25 11:20:23;;;;;;;;;2.00;1.67;;;;;21.81;35.35;100211.13;5058394;28;45727;-82
2022/12/25 11:22:49;;;;;;;;;5.00;4.00;;;;;;;;5056952;28;45511;-85
2022/12/25 11:25:22;;;;;;;;;3.00;3.00;;;;;21.70;35.39;100221.09;5058186;28;45569;-86
2022/12/25 11:28:03;;;;;;;;;1.67;1.67;;;;;21.81;35.08;100246.56;5056900;28;45434;-84
2022/12/25 11:30:31;;;;;;;;;2.33;2.00;;;;;21.64;35.44;100238.91;5052360;28;45421;-84
2022/12/25 11:33:04;;;;;;;;;1.67;1.67;;;;;21.65;35.40;100235.38;5060171;28;46174;-83
2022/12/25 11:35:49;;;;;;;;;3.00;1.67;;;;;21.87;35.37;100260.66;5056228;28;45477;-79
2022/12/25 11:38:14;;;;;;;;;1.00;1.00;;;;;21.86;35.14;100243.78;5056477;28;45500;-83
2022/12/25 11:40:48;;;;;;;;;2.00;1.33;;;;;22.00;35.46;100249.72;5056513;28;45281;-85
2022/12/25 11:43:17;;;;;;;;;2.00;2.00;;;;;22.16;34.95;100241.38;5053680;28;46174;-80
2022/12/25 11:45:52;;;;;;;;;3.67;3.67;;;;;22.26;35.41;100248.25;5055529;28;45221;-82
2022/12/25 11:48:24;;;;;;;;;2.00;1.33;;;;;22.43;35.21;100248.75;5056338;28;45980;-81
2022/12/25 11:50:55;;;;;;;;;2.00;1.67;;;;;22.57;34.46;100255.53;5056753;28;45442;-78
2022/12/25 11:53:50;;;;;;;;;2.33;2.33;;;;;22.39;34.70;100270.16;5036477;28;45484;-79
2022/12/25 11:56:25;;;;;;;;;2.00;2.00;;;;;22.50;35.23;100251.25;5049605;28;45608;-83
2022/12/25 11:59:01;;;;;;;;;3.00;2.00;;;;;22.59;35.02;100230.63;5055270;28;47124;-82
2022/12/25 12:01:29;;;;;;;;;5.00;4.00;;;;;22.74;34.47;100236.47;5056221;28;45473;-81
2022/12/25 12:03:57;;;;;;;;;3.67;3.00;;;;;22.72;34.47;100230.31;5055949;28;45563;-77
2022/12/25 12:06:34;;;;;;;;;2.00;2.00;;;;;22.68;35.05;100220.66;5056388;28;45549;-81
2022/12/25 12:09:42;;;;;;;;;2.33;2.00;;;;;22.63;34.22;100223.44;5033094;28;45584;-82
2022/12/25 12:12:16;;;;;;;;;3.67;3.00;;;;;22.58;34.38;100201.38;5050174;28;45576;-77
2022/12/25 12:15:03;;;;;;;;;2.67;2.00;;;;;22.63;34.48;100200.34;5056514;28;46286;-82
2022/12/25 12:17:29;;;;;;;;;3.00;3.00;;;;;22.56;34.32;100177.47;5057162;28;45509;-82
2022/12/25 12:19:54;;;;;;;;;3.33;2.67;;;;;22.37;34.94;100155.75;5057685;28;45569;-75
2022/12/25 12:22:26;;;;;;;;;4.00;2.00;;;;;22.43;34.83;100162.72;5057509;28;45481;-79
2022/12/25 12:25:00;;;;;;;;;3.00;3.00;;;;;22.40;35.37;100145.03;5057311;28;46045;-73
2022/12/25 12:27:35;;;;;;;;;3.33;3.33;;;;;22.27;34.84;100140.06;5057220;28;45454;-70
2022/12/25 12:30:01;;;;;;;;;2.00;2.00;;;;;22.11;35.33;100112.94;5058872;28;45387;-75
2022/12/25 12:32:43;;;;;;;;;2.33;2.33;;;;;22.11;35.89;100110.28;5061300;28;45530;-74
2022/12/25 12:35:17;;;;;;;;;2.00;2.00;;;;;22.13;35.02;100114.63;5060924;28;45269;-82
2022/12/25 12:38:05;;;;;;;;;4.00;2.67;;;;;21.91;35.06;100116.94;5060408;28;45245;-71
2022/12/25 12:40:35;;;;;;;;;3.00;2.33;;;;;21.93;34.90;100101.81;5058532;28;45521;-73
2022/12/25 12:43:02;;;;;;;;;2.67;2.67;;;;;21.92;35.39;100084.09;5059272;28;45562;-82
2022/12/25 12:45:31;;;;;;;;;2.67;2.00;;;;;21.96;35.38;100106.19;5059194;28;46007;-78
2022/12/25 12:47:57;;;;;;;;;3.00;3.00;;;;;21.97;35.72;100095.50;5059696;28;45684;-69
2022/12/25 12:50:43;;;;;;;;;3.00;2.00;;;;;21.93;35.51;100108.94;5059680;28;45475;-79
2022/12/25 12:53:22;;;;;;;;;2.00;2.00;;;;;21.87;35.29;100133.00;5065339;28;45606;-80
2022/12/25 12:55:51;;;;;;;;;2.33;2.33;;;;;21.80;35.29;100138.44;5061690;28;45407;-77
2022/12/25 12:58:32;;;;;;;;;4.00;3.00;;;;;21.85;35.93;100143.66;5040314;28;45369;-76
2022/12/25 13:01:07;;;;;;;;;5.00;3.00;;;;;21.99;36.31;100151.34;5059937;28;45441;-69
2022/12/25 13:04:07;;;;;;;;;3.00;3.00;;;;;22.07;35.89;100145.84;5060100;28;45408;-72
2022/12/25 13:06:41;;;;;;;;;3.00;3.00;;;;;22.07;35.36;100137.84;5054927;28;45952;-77
2022/12/25 13:09:17;;;;;;;;;3.00;3.00;;;;;22.31;35.71;100139.94;5052273;28;45482;-75
2022/12/25 13:11:43;;;;;;;;;2.67;2.67;;;;;22.23;34.86;100105.50;5058957;28;46077;-70
2022/12/25 13:14:15;;;;;;;;;4.00;3.00;;;;;22.37;34.92;100141.56;5058990;28;45406;-69
2022/12/25 13:16:44;;;;;;;;;2.67;2.00;;;;;22.23;35.04;100160.50;5058756;28;46286;-74
2022/12/25 13:19:23;;;;;;;;;2.00;2.00;;;;;22.16;34.62;100170.44;5058573;28;45604;-72
2022/12/25 13:21:54;;;;;;;;;2.67;2.67;;;;;22.05;35.43;100181.31;5055773;28;45538;-69
2022/12/25 13:24:28;;;;;;;;;2.67;2.67;;;;;21.97;35.52;100163.78;5058732;28;45371;-74